createdAt,value
2023-05-10T00:01:01.126Z,100332.00
2023-05-10T00:04:05.924Z,100346.28
2023-05-10T00:07:08.558Z,100343.25
2023-05-10T00:10:11.828Z,100342.28
2023-05-10T00:13:14.704Z,100342.88
2023-05-10T00:16:17.435Z,100331.50
2023-05-10T00:19:20.058Z,100337.22
2023-05-10T00:22:22.657Z,100339.03
2023-05-10T00:25:25.322Z,100323.34
2023-05-10T00:28:29.748Z,100332.31
2023-05-10T00:31:32.875Z,100330.28
2023-05-10T00:34:35.499Z,100331.72
2023-05-10T00:37:38.219Z,100317.06
2023-05-10T00:40:40.891Z,100327.84
2023-05-10T00:43:50.142Z,100330.69
2023-05-10T00:46:53.548Z,100318.47
2023-05-10T00:49:56.901Z,100321.34
2023-05-10T00:53:00.765Z,100327.63
2023-05-10T00:56:04.352Z,100325.59
2023-05-10T00:59:07.118Z,100308.47
2023-05-10T01:02:09.820Z,100314.56
2023-05-10T01:05:12.925Z,100319.47
2023-05-10T01:08:15.676Z,100314.38
2023-05-10T01:11:18.365Z,100314.19
2023-05-10T01:14:21.606Z,100306.66
2023-05-10T01:17:24.542Z,100301.78
2023-05-10T01:20:28.146Z,100303.81
2023-05-10T01:24:01.545Z,100307.66
2023-05-10T01:27:46.238Z,100310.94
2023-05-10T01:30:48.799Z,100305.03
2023-05-10T01:34:03.314Z,100300.16
2023-05-10T01:37:11.879Z,100306.88
2023-05-10T01:40:52.050Z,100311.31
2023-05-10T01:44:32.274Z,100307.06
2023-05-10T01:47:47.469Z,100291.16
2023-05-10T01:50:52.165Z,100297.66
2023-05-10T01:54:01.678Z,100294.16
2023-05-10T01:57:07.356Z,100292.94
2023-05-10T02:00:11.851Z,100291.88
2023-05-10T02:03:17.520Z,100281.06
2023-05-10T02:06:21.656Z,100293.06
2023-05-10T02:09:25.501Z,100285.34
2023-05-10T02:12:29.532Z,100278.81
2023-05-10T02:15:32.533Z,100280.41
2023-05-10T02:18:37.036Z,100290.34
2023-05-10T02:21:41.364Z,100271.47
2023-05-10T02:24:44.864Z,100276.00
2023-05-10T02:27:48.691Z,100280.50
2023-05-10T02:30:52.074Z,100272.34
2023-05-10T02:33:55.352Z,100278.22
2023-05-10T02:36:58.153Z,100275.97
2023-05-10T02:40:04.183Z,100280.44
2023-05-10T02:43:07.979Z,100272.66
2023-05-10T02:46:10.574Z,100270.41
2023-05-10T02:49:13.259Z,100275.06
2023-05-10T02:52:24.218Z,100267.50
2023-05-10T02:55:34.332Z,100284.81
2023-05-10T02:58:36.926Z,100274.03
2023-05-10T03:01:39.727Z,100275.44
2023-05-10T03:04:42.997Z,100278.31
2023-05-10T03:07:46.649Z,100275.66
2023-05-10T03:11:10.594Z,100265.69
2023-05-10T03:14:31.994Z,100281.41
2023-05-10T03:17:48.808Z,100270.97
2023-05-10T03:20:56.653Z,100271.31
2023-05-10T03:24:20.100Z,100282.94
2023-05-10T03:27:26.512Z,100265.59
2023-05-10T03:30:30.548Z,100277.66
2023-05-10T03:33:33.568Z,100283.97
2023-05-10T03:36:36.260Z,100274.22
2023-05-10T03:39:38.934Z,100283.97
2023-05-10T03:42:43.728Z,100278.25
2023-05-10T03:45:46.470Z,100291.50
2023-05-10T03:48:49.176Z,100282.19
2023-05-10T03:51:51.807Z,100283.78
2023-05-10T03:54:54.470Z,100288.50
2023-05-10T03:57:57.357Z,100293.19
2023-05-10T04:01:00.677Z,100289.59
2023-05-10T04:04:03.566Z,100287.19
2023-05-10T04:07:07.778Z,100286.78
2023-05-10T04:10:11.054Z,100268.25
2023-05-10T04:13:13.753Z,100292.69
2023-05-10T04:16:16.463Z,100297.56
2023-05-10T04:19:19.066Z,100309.00
2023-05-10T04:22:21.988Z,100311.22
2023-05-10T04:25:24.692Z,100310.44
2023-05-10T04:28:28.312Z,100309.84
2023-05-10T04:31:33.785Z,100303.78
2023-05-10T04:34:39.182Z,100311.13
2023-05-10T04:37:41.857Z,100310.94
2023-05-10T04:40:44.545Z,100304.22
2023-05-10T04:43:49.926Z,100312.13
2023-05-10T04:46:52.492Z,100311.53
2023-05-10T04:50:00.061Z,100299.25
2023-05-10T04:53:02.681Z,100310.22
2023-05-10T04:56:05.708Z,100309.72
2023-05-10T04:59:08.438Z,100303.56
2023-05-10T05:02:11.024Z,100308.81
2023-05-10T05:05:13.925Z,100302.69
2023-05-10T05:08:16.823Z,100311.00
2023-05-10T05:11:19.822Z,100306.66
2023-05-10T05:14:22.585Z,100306.44
2023-05-10T05:17:27.895Z,100310.91
2023-05-10T05:20:37.148Z,100298.38
2023-05-10T05:23:40.713Z,100294.31
2023-05-10T05:26:43.317Z,100297.53
2023-05-10T05:29:48.793Z,100301.31
2023-05-10T05:32:51.514Z,100317.34
2023-05-10T05:35:54.241Z,100313.97
2023-05-10T05:38:57.145Z,100305.84
2023-05-10T05:41:59.887Z,100308.56
2023-05-10T05:45:04.850Z,100313.97
2023-05-10T05:48:07.699Z,100305.66
2023-05-10T05:51:10.374Z,100314.19
2023-05-10T05:54:17.093Z,100324.66
2023-05-10T05:57:22.683Z,100326.34
2023-05-10T06:00:26.756Z,100333.47
2023-05-10T06:03:29.499Z,100338.72
2023-05-10T06:06:33.414Z,100340.09
2023-05-10T06:09:36.227Z,100337.72
2023-05-10T06:12:41.860Z,100342.38
2023-05-10T06:15:48.114Z,100346.66
2023-05-10T06:18:50.836Z,100359.28
2023-05-10T06:21:53.948Z,100348.63
2023-05-10T06:24:59.511Z,100343.66
2023-05-10T06:28:02.386Z,100345.28
2023-05-10T06:31:08.068Z,100355.00
2023-05-10T06:34:10.856Z,100349.44
2023-05-10T06:37:13.467Z,100351.63
2023-05-10T06:40:16.704Z,100344.66
2023-05-10T06:43:19.351Z,100346.00
2023-05-10T06:46:22.118Z,100336.00
2023-05-10T06:49:24.804Z,100348.34
2023-05-10T06:52:27.366Z,100355.22
2023-05-10T06:55:30.534Z,100340.81
2023-05-10T06:58:33.895Z,100340.97
2023-05-10T07:01:36.544Z,100334.75
2023-05-10T07:04:39.260Z,100331.19
2023-05-10T07:07:42.056Z,100328.72
2023-05-10T07:10:44.839Z,100331.56
2023-05-10T07:13:47.589Z,100326.69
2023-05-10T07:16:50.585Z,100332.19
2023-05-10T07:19:53.318Z,100334.72
2023-05-10T07:22:56.010Z,100322.56
2023-05-10T07:25:58.828Z,100325.91
2023-05-10T07:29:01.767Z,100322.47
2023-05-10T07:32:05.039Z,100336.09
2023-05-10T07:35:08.014Z,100329.06
2023-05-10T07:38:12.437Z,100309.78
2023-05-10T07:41:15.073Z,100313.88
2023-05-10T07:44:20.257Z,100326.53
2023-05-10T07:47:23.026Z,100314.66
2023-05-10T07:50:25.688Z,100326.06
2023-05-10T07:53:28.783Z,100310.00
2023-05-10T07:56:33.409Z,100312.22
2023-05-10T07:59:41.482Z,100323.88
2023-05-10T08:02:44.260Z,100316.09
2023-05-10T08:05:47.060Z,100321.50
2023-05-10T08:08:54.729Z,100317.44
2023-05-10T08:11:57.633Z,100327.69
2023-05-10T08:15:00.546Z,100327.16
2023-05-10T08:18:03.310Z,100317.72
2023-05-10T08:21:06.357Z,100322.03
2023-05-10T08:24:09.143Z,100310.72
2023-05-10T08:27:11.988Z,100318.53
2023-05-10T08:30:16.908Z,100326.06
2023-05-10T08:33:20.025Z,100322.75
2023-05-10T08:36:25.293Z,100313.91
2023-05-10T08:39:30.781Z,100314.72
2023-05-10T08:42:37.373Z,100313.63
2023-05-10T08:45:42.396Z,100306.13
2023-05-10T08:48:49.191Z,100324.94
2023-05-10T08:51:56.119Z,100317.88
2023-05-10T08:54:59.349Z,100303.91
2023-05-10T08:58:04.807Z,100323.78
2023-05-10T09:01:07.597Z,100319.66
2023-05-10T09:04:10.581Z,100301.47
2023-05-10T09:07:13.687Z,100311.06
2023-05-10T09:10:17.013Z,100307.53
2023-05-10T09:13:20.615Z,100298.31
2023-05-10T09:16:24.513Z,100305.41
2023-05-10T09:19:27.238Z,100292.16
2023-05-10T09:22:29.976Z,100310.34
2023-05-10T09:25:34.467Z,100291.84
2023-05-10T09:28:57.918Z,100306.63
2023-05-10T09:32:00.560Z,100301.13
2023-05-10T09:35:18.154Z,100302.50
2023-05-10T09:38:21.015Z,100291.63
2023-05-10T09:41:24.725Z,100303.38
2023-05-10T09:44:29.050Z,100302.81
2023-05-10T09:47:36.731Z,100292.69
2023-05-10T09:50:40.291Z,100291.41
2023-05-10T09:53:46.982Z,100280.00
2023-05-10T09:56:49.952Z,100288.38
2023-05-10T09:59:54.671Z,100282.16
2023-05-10T10:03:03.720Z,100286.44
2023-05-10T10:06:18.902Z,100275.31
2023-05-10T10:09:29.842Z,100280.19
2023-05-10T10:12:32.809Z,100274.25
2023-05-10T10:15:36.128Z,100262.81
2023-05-10T10:18:42.065Z,100282.06
2023-05-10T10:21:45.656Z,100267.66
2023-05-10T10:24:48.454Z,100279.81
2023-05-10T10:27:53.880Z,100272.84
2023-05-10T10:30:57.457Z,100271.38
2023-05-10T10:34:03.179Z,100273.22
2023-05-10T10:37:07.127Z,100273.22
2023-05-10T10:40:26.057Z,100265.25
2023-05-10T10:43:31.486Z,100244.81
2023-05-10T10:46:35.493Z,100271.78
2023-05-10T10:49:41.236Z,100254.13
2023-05-10T10:52:44.841Z,100244.25
2023-05-10T10:55:53.788Z,100258.97
2023-05-10T10:59:00.816Z,100252.91
2023-05-10T11:02:03.837Z,100250.22
2023-05-10T11:05:34.583Z,100235.47
2023-05-10T11:08:46.079Z,100247.06
2023-05-10T11:11:59.629Z,100233.28
2023-05-10T11:15:12.823Z,100213.06
2023-05-10T11:18:20.454Z,100231.38
2023-05-10T11:21:23.602Z,100236.38
2023-05-10T11:24:28.947Z,100231.09
2023-05-10T11:27:31.571Z,100219.22
2023-05-10T11:30:39.320Z,100214.50
2023-05-10T11:33:54.005Z,100215.91
2023-05-10T11:36:58.624Z,100227.28
2023-05-10T11:40:02.067Z,100226.09
2023-05-10T11:43:05.567Z,100212.50
2023-05-10T11:46:13.626Z,100211.84
2023-05-10T11:49:16.384Z,100207.25
2023-05-10T11:52:20.255Z,100206.72
2023-05-10T11:55:23.425Z,100205.91
2023-05-10T11:58:26.375Z,100204.06
2023-05-10T12:01:29.936Z,100203.34
2023-05-10T12:04:47.973Z,100183.53
2023-05-10T12:07:55.180Z,100197.28
2023-05-10T12:11:16.594Z,100137.63
2023-05-10T12:14:45.215Z,100167.72
2023-05-10T12:18:18.654Z,100184.88
2023-05-10T12:21:32.389Z,100178.72
2023-05-10T12:24:41.076Z,100177.69
2023-05-10T12:27:58.519Z,100181.69
2023-05-10T12:31:16.877Z,100180.13
2023-05-10T12:34:43.400Z,100122.28
2023-05-10T12:37:52.139Z,100180.78
2023-05-10T12:41:10.049Z,100155.63
2023-05-10T12:44:20.625Z,100175.59
2023-05-10T12:47:51.844Z,100141.06
2023-05-10T12:51:16.209Z,100106.53
2023-05-10T12:54:25.509Z,100135.13
2023-05-10T12:57:36.497Z,100140.19
2023-05-10T13:00:42.434Z,100143.84
2023-05-10T13:03:51.484Z,100119.81
2023-05-10T13:07:00.143Z,100114.75
2023-05-10T13:10:02.937Z,100144.13
2023-05-10T13:13:06.393Z,100150.59
2023-05-10T13:16:10.384Z,100147.69
2023-05-10T13:19:18.912Z,100137.56
2023-05-10T13:22:36.421Z,100139.91
2023-05-10T13:25:48.874Z,100094.78
2023-05-10T13:28:57.883Z,100132.13
2023-05-10T13:32:06.709Z,100125.44
2023-05-10T13:35:18.303Z,100118.88
2023-05-10T13:38:23.943Z,100119.03
2023-05-10T13:41:28.640Z,100086.13
2023-05-10T13:44:40.674Z,100114.63
2023-05-10T13:47:43.585Z,100082.31
2023-05-10T13:50:46.275Z,100110.97
2023-05-10T13:53:48.858Z,100109.06
2023-05-10T13:56:51.540Z,100099.16
2023-05-10T13:59:55.875Z,100110.66
2023-05-10T14:03:00.309Z,100099.31
2023-05-10T14:06:03.569Z,100103.66
2023-05-10T14:09:06.198Z,100098.88
2023-05-10T14:12:09.233Z,100098.09
2023-05-10T14:15:12.720Z,100085.34
2023-05-10T14:18:15.454Z,100099.38
2023-05-10T14:21:19.236Z,100083.84
2023-05-10T14:24:21.915Z,100093.94
2023-05-10T14:27:24.518Z,100091.34
2023-05-10T14:30:27.152Z,100091.69
2023-05-10T14:33:29.763Z,100090.41
2023-05-10T14:36:34.757Z,100076.78
2023-05-10T14:39:37.341Z,100075.22
2023-05-10T14:42:39.938Z,100082.50
2023-05-10T14:45:42.588Z,100079.19
2023-05-10T14:48:45.238Z,100086.34
2023-05-10T14:51:47.931Z,100089.69
2023-05-10T14:54:50.560Z,100083.13
2023-05-10T14:57:53.199Z,100081.88
2023-05-10T15:00:55.832Z,100083.19
2023-05-10T15:03:58.971Z,100074.28
2023-05-10T15:07:01.923Z,100085.72
2023-05-10T15:10:05.196Z,100075.47
2023-05-10T15:13:07.905Z,100085.34
2023-05-10T15:16:10.654Z,100080.72
2023-05-10T15:19:13.309Z,100083.19
2023-05-10T15:22:16.398Z,100075.50
2023-05-10T15:25:21.910Z,100080.16
2023-05-10T15:28:27.545Z,100082.88
2023-05-10T15:31:30.340Z,100067.69
2023-05-10T15:34:34.920Z,100064.00
2023-05-10T15:37:40.818Z,100079.59
2023-05-10T15:40:43.414Z,100089.44
2023-05-10T15:43:46.054Z,100088.00
2023-05-10T15:46:48.756Z,100077.34
2023-05-10T15:49:51.425Z,100066.91
2023-05-10T15:52:54.156Z,100071.69
2023-05-10T15:55:56.854Z,100065.28
2023-05-10T15:58:59.456Z,100074.19
2023-05-10T16:02:04.176Z,100086.78
2023-05-10T16:05:07.116Z,100072.66
2023-05-10T16:08:09.887Z,100063.06
2023-05-10T16:11:12.569Z,100073.22
2023-05-10T16:14:16.278Z,100065.59
2023-05-10T16:17:20.466Z,100072.66
2023-05-10T16:20:23.450Z,100068.34
2023-05-10T16:23:26.077Z,100077.59
2023-05-10T16:26:28.685Z,100081.63
2023-05-10T16:29:32.124Z,100057.34
2023-05-10T16:32:35.322Z,100068.47
2023-05-10T16:35:39.006Z,100073.16
2023-05-10T16:38:43.150Z,100076.00
2023-05-10T16:41:45.803Z,100078.66
2023-05-10T16:44:51.108Z,100076.47
2023-05-10T16:47:54.038Z,100075.19
2023-05-10T16:51:09.649Z,100081.81
2023-05-10T16:54:12.325Z,100084.63
2023-05-10T16:57:14.970Z,100086.16
2023-05-10T17:00:18.867Z,100092.81
2023-05-10T17:03:24.888Z,100093.97
2023-05-10T17:06:30.305Z,100090.81
2023-05-10T17:09:33.007Z,100089.59
2023-05-10T17:12:39.453Z,100094.28
2023-05-10T17:15:42.197Z,100086.91
2023-05-10T17:18:46.009Z,100070.63
2023-05-10T17:21:48.940Z,100090.53
2023-05-10T17:24:51.530Z,100085.72
2023-05-10T17:27:54.152Z,100096.16
2023-05-10T17:30:58.078Z,100100.44
2023-05-10T17:34:01.804Z,100106.31
2023-05-10T17:37:05.251Z,100107.91
2023-05-10T17:40:10.178Z,100105.38
2023-05-10T17:43:13.153Z,100109.34
2023-05-10T17:46:15.853Z,100116.19
2023-05-10T17:49:21.671Z,100118.28
2023-05-10T17:52:24.383Z,100112.53
2023-05-10T17:55:27.274Z,100114.28
2023-05-10T17:58:30.507Z,100121.41
2023-05-10T18:01:33.101Z,100123.41
2023-05-10T18:04:35.908Z,100125.94
2023-05-10T18:07:38.595Z,100122.06
2023-05-10T18:10:41.633Z,100117.16
2023-05-10T18:13:44.430Z,100125.34
2023-05-10T18:16:50.380Z,100126.22
2023-05-10T18:19:52.951Z,100122.38
2023-05-10T18:22:56.159Z,100119.22
2023-05-10T18:25:58.848Z,100132.25
2023-05-10T18:29:01.758Z,100127.66
2023-05-10T18:32:04.914Z,100137.34
2023-05-10T18:35:08.341Z,100139.34
2023-05-10T18:38:11.127Z,100145.06
2023-05-10T18:41:14.663Z,100147.19
2023-05-10T18:44:17.270Z,100153.34
2023-05-10T18:47:20.079Z,100143.81
2023-05-10T18:50:22.854Z,100154.06
2023-05-10T18:53:25.571Z,100163.31
2023-05-10T18:56:28.351Z,100145.69
2023-05-10T18:59:36.950Z,100166.66
2023-05-10T19:02:40.705Z,100167.31
2023-05-10T19:05:43.431Z,100171.78
2023-05-10T19:08:49.132Z,100160.84
2023-05-10T19:11:51.976Z,100167.72
2023-05-10T19:14:54.876Z,100172.09
2023-05-10T19:17:57.622Z,100173.06
2023-05-10T19:21:04.747Z,100176.09
2023-05-10T19:24:07.703Z,100185.09
2023-05-10T19:27:13.584Z,100187.09
2023-05-10T19:30:16.263Z,100178.13
2023-05-10T19:33:19.602Z,100179.06
2023-05-10T19:36:22.392Z,100185.91
2023-05-10T19:39:25.129Z,100188.66
2023-05-10T19:42:28.016Z,100174.56
2023-05-10T19:45:30.648Z,100189.84
2023-05-10T19:48:33.432Z,100191.28
2023-05-10T19:51:36.336Z,100186.25
2023-05-10T19:54:40.138Z,100178.56
2023-05-10T19:57:46.222Z,100197.34
2023-05-10T20:00:54.248Z,100192.22
2023-05-10T20:03:57.034Z,100187.41
2023-05-10T20:06:59.715Z,100192.63
2023-05-10T20:10:02.958Z,100191.91
2023-05-10T20:13:05.715Z,100185.56
2023-05-10T20:16:08.587Z,100193.66
2023-05-10T20:19:12.346Z,100195.94
2023-05-10T20:22:15.062Z,100196.44
2023-05-10T20:25:18.864Z,100196.53
2023-05-10T20:28:23.570Z,100197.25
2023-05-10T20:31:26.622Z,100184.75
2023-05-10T20:34:29.459Z,100196.25
2023-05-10T20:37:32.335Z,100195.00
2023-05-10T20:40:35.023Z,100201.84
2023-05-10T20:43:37.805Z,100198.63
2023-05-10T20:46:40.609Z,100201.06
2023-05-10T20:49:43.310Z,100195.38
2023-05-10T20:52:46.062Z,100193.66
2023-05-10T20:55:48.715Z,100179.50
2023-05-10T20:58:51.494Z,100186.38
2023-05-10T21:01:54.286Z,100195.06
2023-05-10T21:04:57.970Z,100192.41
2023-05-10T21:08:00.848Z,100188.00
2023-05-10T21:11:06.362Z,100196.25
2023-05-10T21:14:09.827Z,100195.66
2023-05-10T21:17:14.273Z,100198.69
2023-05-10T21:20:17.321Z,100196.72
2023-05-10T21:23:20.125Z,100198.66
2023-05-10T21:26:23.363Z,100200.88
2023-05-10T21:29:26.135Z,100198.19
2023-05-10T21:32:28.763Z,100202.09
2023-05-10T21:35:31.747Z,100212.97
2023-05-10T21:38:34.521Z,100217.22
2023-05-10T21:41:37.353Z,100200.13
2023-05-10T21:44:42.538Z,100206.13
2023-05-10T21:47:45.705Z,100205.75
2023-05-10T21:50:48.426Z,100197.03
2023-05-10T21:53:51.650Z,100197.25
2023-05-10T21:56:55.249Z,100186.13
2023-05-10T21:59:59.071Z,100205.53
2023-05-10T22:03:02.042Z,100208.94
2023-05-10T22:06:04.939Z,100207.53
2023-05-10T22:09:07.681Z,100210.53
2023-05-10T22:12:10.357Z,100184.69
2023-05-10T22:15:13.129Z,100194.38
2023-05-10T22:18:15.738Z,100182.78
2023-05-10T22:21:18.346Z,100211.31
2023-05-10T22:24:23.613Z,100211.75
2023-05-10T22:27:26.303Z,100200.00
2023-05-10T22:30:30.962Z,100201.66
2023-05-10T22:33:39.442Z,100208.00
2023-05-10T22:36:42.488Z,100200.00
2023-05-10T22:39:54.055Z,100206.38
2023-05-10T22:42:56.608Z,100210.66
2023-05-10T22:45:59.209Z,100198.34
2023-05-10T22:49:01.944Z,100201.81
2023-05-10T22:52:08.766Z,100207.94
2023-05-10T22:55:11.486Z,100207.50
2023-05-10T22:58:14.216Z,100202.78
2023-05-10T23:01:17.269Z,100195.75
2023-05-10T23:04:22.856Z,100205.47
2023-05-10T23:07:28.323Z,100199.25
2023-05-10T23:10:30.849Z,100211.69
2023-05-10T23:13:33.496Z,100200.44
2023-05-10T23:16:36.318Z,100200.44
2023-05-10T23:19:39.052Z,100204.44
2023-05-10T23:22:41.653Z,100203.09
2023-05-10T23:25:44.249Z,100209.75
2023-05-10T23:28:47.030Z,100200.41
2023-05-10T23:31:52.671Z,100207.41
2023-05-10T23:34:55.384Z,100201.22
2023-05-10T23:37:57.946Z,100207.41
2023-05-10T23:41:00.594Z,100204.59
2023-05-10T23:44:11.699Z,100205.34
2023-05-10T23:47:14.285Z,100207.88
2023-05-10T23:50:17.110Z,100204.75
2023-05-10T23:53:19.993Z,100206.69
2023-05-10T23:56:22.665Z,100202.41
2023-05-10T23:59:25.684Z,100205.41
